Time;durP1;ratioP1;P1;durP2;ratioP2;P2;SDS_P1;SDS_P2;PMS_P1;PMS_P2;Temp;Humidity;BMP_temperature;BMP_pressure;BME280_temperature;BME280_humidity;BME280_pressure;Samples;Min_cycle;Max_cycle;Signal;HPM_P1;HPM_P2
2023/01/05 00:03:55;;;;;;;3.87;1.43;;;15.60;99.90;;;;;;9971102;29;20298;-85
2023/01/05 00:08:59;;;;;;;3.67;1.57;;;15.60;99.90;;;;;;10054770;29;20270;-84
2023/01/05 00:24:44;;;;;;;2.43;1.73;;;15.30;99.90;;;;;;10055085;29;20248;-85
2023/01/05 00:29:47;;;;;;;2.03;1.13;;;15.30;99.90;;;;;;10038316;29;20723;-85
2023/01/05 00:34:53;;;;;;;1.30;1.00;;;15.30;99.90;;;;;;10053432;29;20250;-85
2023/01/05 00:39:55;;;;;;;2.27;1.67;;;15.10;99.90;;;;;;10037391;29;20633;-84
2023/01/05 00:44:58;;;;;;;2.80;2.13;;;15.40;99.90;;;;;;10037632;29;20242;-85
2023/01/05 00:50:00;;;;;;;2.83;1.30;;;15.20;99.90;;;;;;10037989;29;20302;-85
2023/01/05 00:55:03;;;;;;;1.53;1.30;;;15.00;99.90;;;;;;10053090;29;20233;-84
2023/01/05 01:00:10;;;;;;;2.20;1.73;;;15.40;99.90;;;;;;10037231;29;20251;-85
2023/01/05 01:05:13;;;;;;;3.00;1.60;;;15.20;99.90;;;;;;10036929;29;20234;-85
2023/01/05 01:10:15;;;;;;;2.33;1.27;;;15.20;99.90;;;;;;10053092;29;20811;-85
2023/01/05 01:15:18;;;;;;;1.90;1.47;;;15.50;99.90;;;;;;10052982;29;20247;-85
2023/01/05 01:20:20;;;;;;;5.90;1.77;;;15.10;99.90;;;;;;10051826;29;20270;-85
2023/01/05 01:25:23;;;;;;;1.50;1.00;;;13.70;99.90;;;;;;10036267;29;20309;-84
2023/01/05 01:30:26;;;;;;;1.17;0.80;;;13.00;99.90;;;;;;10052177;29;20682;-85
2023/01/05 01:35:29;;;;;;;0.83;0.60;;;13.40;99.90;;;;;;10050876;29;20320;-84
2023/01/05 01:40:38;;;;;;;1.23;0.90;;;14.40;99.90;;;;;;10036020;29;20306;-84
2023/01/05 01:45:42;;;;;;;2.20;0.87;;;14.30;99.90;;;;;;10053232;29;20206;-85
2023/01/05 01:50:52;;;;;;;1.43;0.70;;;14.00;99.90;;;;;;10033803;29;20270;-85
2023/01/05 01:55:59;;;;;;;1.53;0.80;;;13.90;99.90;;;;;;10035428;29;20289;-84
2023/01/05 02:01:02;;;;;;;4.53;1.70;;;14.10;99.90;;;;;;10036000;29;20257;-84
2023/01/05 02:06:06;;;;;;;1.47;0.67;;;14.00;99.90;;;;;;10035739;29;20277;-84
2023/01/05 02:11:39;;;;;;;1.23;0.80;;;13.80;99.90;;;;;;10050790;29;20705;-85
2023/01/05 02:17:00;;;;;;;1.60;0.80;;;14.30;99.90;;;;;;10051877;29;20233;-84
2023/01/05 02:22:44;;;;;;;0.70;0.50;;;14.30;99.90;;;;;;10034935;29;20246;-85
2023/01/05 02:28:14;;;;;;;1.17;0.90;;;13.70;99.90;;;;;;10036936;29;20240;-84
2023/01/05 02:33:32;;;;;;;2.23;1.00;;;13.90;99.90;;;;;;10042975;29;20290;-84
2023/01/05 02:38:48;;;;;;;0.73;0.60;;;14.10;99.90;;;;;;10051512;29;20665;-84
2023/01/05 02:43:51;;;;;;;2.97;0.87;;;14.70;99.90;;;;;;10035469;29;20403;-84
2023/01/05 02:48:57;;;;;;;3.00;1.27;;;14.50;99.90;;;;;;10061262;29;20264;-84
2023/01/05 02:54:17;;;;;;;2.40;1.00;;;14.50;99.90;;;;;;10075792;29;20724;-84
2023/01/05 02:59:29;;;;;;;1.73;0.90;;;14.50;99.90;;;;;;10082033;29;20297;-84
2023/01/05 03:04:47;;;;;;;0.80;0.57;;;15.00;99.90;;;;;;10094629;29;20226;-84
2023/01/05 03:09:50;;;;;;;1.03;0.77;;;14.70;99.90;;;;;;10085223;29;20715;-84
2023/01/05 03:14:58;;;;;;;0.87;0.60;;;14.90;99.90;;;;;;10087572;29;20305;-84
2023/01/05 03:20:03;;;;;;;1.30;1.20;;;15.10;99.90;;;;;;10068193;29;20313;-84
2023/01/05 03:36:12;;;;;;;1.40;0.90;;;15.10;99.90;;;;;;10075976;29;20332;-84
2023/01/05 03:41:16;;;;;;;3.80;0.70;;;14.90;99.90;;;;;;10092080;29;20282;-84
2023/01/05 03:46:21;;;;;;;1.00;0.90;;;15.10;99.90;;;;;;10043110;29;20241;-84
2023/01/05 03:51:24;;;;;;;1.73;0.93;;;15.00;99.90;;;;;;10031875;29;20689;-84
2023/01/05 03:56:26;;;;;;;1.37;0.83;;;15.40;99.90;;;;;;10056305;29;20229;-84
2023/01/05 04:01:31;;;;;;;2.23;1.17;;;15.00;99.90;;;;;;10054852;29;20307;-84
2023/01/05 04:06:35;;;;;;;1.13;0.80;;;15.00;99.90;;;;;;10039267;29;20269;-84
2023/01/05 04:11:39;;;;;;;2.00;0.30;;;15.00;99.90;;;;;;10052471;29;20252;-85
2023/01/05 04:16:42;;;;;;;1.83;0.90;;;15.10;99.90;;;;;;10074842;29;20236;-84
2023/01/05 04:21:53;;;;;;;0.90;0.70;;;15.10;99.90;;;;;;10076672;29;20237;-85
2023/01/05 04:26:58;;;;;;;2.73;0.90;;;15.30;99.90;;;;;;10037510;29;21262;-85
2023/01/05 04:32:02;;;;;;;1.17;0.93;;;15.50;99.90;;;;;;10037824;29;20702;-85
2023/01/05 04:37:05;;;;;;;1.10;0.80;;;15.50;99.90;;;;;;10036952;29;20265;-85
2023/01/05 04:42:09;;;;;;;1.13;0.70;;;15.20;99.90;;;;;;10053757;29;20250;-85
2023/01/05 04:47:12;;;;;;;1.60;0.60;;;15.30;99.90;;;;;;10025940;29;20253;-85
2023/01/05 04:52:16;;;;;;;1.80;0.90;;;15.30;99.90;;;;;;10016126;29;20293;-85
2023/01/05 04:57:19;;;;;;;1.10;0.70;;;15.60;99.90;;;;;;10037305;29;20637;-84
2023/01/05 05:02:23;;;;;;;2.03;0.77;;;15.30;99.90;;;;;;10036700;29;20249;-84
2023/01/05 05:07:27;;;;;;;1.10;0.60;;;15.40;99.90;;;;;;10035957;29;20241;-84
2023/01/05 05:12:29;;;;;;;1.20;0.73;;;15.30;99.90;;;;;;10035962;29;20261;-84
2023/01/05 05:17:32;;;;;;;5.00;1.80;;;14.60;99.90;;;;;;10053099;29;20735;-84
2023/01/05 05:22:35;;;;;;;3.00;1.30;;;14.60;99.90;;;;;;10034464;29;20294;-84
2023/01/05 05:27:38;;;;;;;2.07;1.00;;;15.00;99.90;;;;;;10036072;29;20264;-84
2023/01/05 05:32:40;;;;;;;2.50;0.90;;;14.90;99.90;;;;;;10074221;29;20285;-84
2023/01/05 05:37:45;;;;;;;4.67;1.10;;;15.10;99.90;;;;;;10070109;29;20269;-84
2023/01/05 05:42:55;;;;;;;1.43;0.70;;;14.70;99.90;;;;;;10080245;29;20269;-85
2023/01/05 05:48:00;;;;;;;3.33;0.77;;;15.10;99.90;;;;;;10066108;29;20778;-86
2023/01/05 05:53:02;;;;;;;2.50;0.70;;;15.30;99.90;;;;;;10077542;29;20332;-85
2023/01/05 05:58:05;;;;;;;3.40;0.83;;;14.40;99.90;;;;;;10064058;29;20288;-86
2023/01/05 06:03:07;;;;;;;5.53;1.00;;;14.40;99.90;;;;;;10071412;29;20755;-85
2023/01/05 06:08:10;;;;;;;1.30;0.60;;;14.50;99.90;;;;;;10085637;29;20297;-85
2023/01/05 06:13:13;;;;;;;3.10;0.67;;;14.60;99.90;;;;;;10077843;29;20312;-85
2023/01/05 06:18:16;;;;;;;3.13;1.07;;;14.10;99.90;;;;;;10071747;29;20692;-86
2023/01/05 06:23:19;;;;;;;1.83;0.93;;;14.20;99.90;;;;;;10084342;29;20297;-86
2023/01/05 06:28:21;;;;;;;2.13;0.77;;;14.70;99.90;;;;;;10084663;29;20233;-86
2023/01/05 06:33:24;;;;;;;4.53;0.87;;;14.50;99.90;;;;;;10075050;29;20328;-85
2023/01/05 06:38:27;;;;;;;2.20;1.60;;;14.50;99.90;;;;;;10081077;29;20292;-85
2023/01/05 06:43:29;;;;;;;5.33;1.00;;;14.70;99.90;;;;;;10085267;29;20301;-84
2023/01/05 06:48:32;;;;;;;2.10;0.90;;;14.50;99.90;;;;;;10093943;29;20664;-85
2023/01/05 06:53:37;;;;;;;1.83;0.80;;;14.30;99.90;;;;;;10058940;29;20307;-85
2023/01/05 06:58:40;;;;;;;1.57;0.90;;;13.60;99.90;;;;;;10095441;29;20296;-85
2023/01/05 07:03:42;;;;;;;4.87;1.03;;;13.60;99.90;;;;;;10095880;29;20284;-85
2023/01/05 07:08:45;;;;;;;3.40;0.63;;;14.10;99.90;;;;;;10095634;29;20263;-85
2023/01/05 07:13:49;;;;;;;1.93;1.10;;;13.70;99.90;;;;;;10076383;29;20265;-84
2023/01/05 07:18:52;;;;;;;1.17;0.70;;;14.50;98.60;;;;;;10044817;29;20274;-82
2023/01/05 07:23:54;;;;;;;1.53;0.70;;;14.10;99.90;;;;;;10083696;29;20277;-80
2023/01/05 07:28:57;;;;;;;2.47;1.20;;;14.50;99.90;;;;;;10125994;23;20315;-79
2023/01/05 07:34:00;;;;;;;4.73;1.30;;;14.10;99.90;;;;;;10129368;29;20260;-79
2023/01/05 07:39:03;;;;;;;4.70;1.70;;;14.80;99.90;;;;;;10094298;29;20656;-79
2023/01/05 07:44:06;;;;;;;4.73;0.70;;;14.20;99.90;;;;;;10095178;29;20431;-79
2023/01/05 07:49:08;;;;;;;1.50;0.90;;;14.60;99.90;;;;;;10059952;29;20606;-79
2023/01/05 07:54:12;;;;;;;3.97;1.00;;;14.90;99.90;;;;;;10093707;29;20248;-80
2023/01/05 07:59:15;;;;;;;7.03;1.10;;;14.70;99.90;;;;;;10094230;29;20224;-79
2023/01/05 08:04:17;;;;;;;4.90;1.10;;;14.00;99.90;;;;;;10059110;29;20241;-79
2023/01/05 08:14:42;;;;;;;1.10;1.00;;;14.90;99.90;;;;;;10047739;29;20253;-79
2023/01/05 08:19:45;;;;;;;1.97;1.10;;;15.00;99.90;;;;;;10106412;29;20631;-79
2023/01/05 08:24:48;;;;;;;2.93;1.00;;;14.40;99.90;;;;;;10078837;29;20292;-79
2023/01/05 08:29:50;;;;;;;3.50;1.17;;;14.20;99.90;;;;;;10093689;29;20329;-80
2023/01/05 08:34:53;;;;;;;3.13;1.47;;;11.50;99.90;;;;;;10077259;29;20249;-80
2023/01/05 08:39:57;;;;;;;1.63;1.33;;;11.80;99.90;;;;;;10062894;29;20249;-80
2023/01/05 08:45:00;;;;;;;4.07;1.60;;;12.10;99.90;;;;;;10108408;29;20238;-80
2023/01/05 08:50:02;;;;;;;5.63;1.83;;;12.20;99.90;;;;;;10130422;29;20265;-80
2023/01/05 08:55:06;;;;;;;3.37;1.33;;;11.90;99.90;;;;;;10130751;29;20299;-80
2023/01/05 09:00:10;;;;;;;6.43;1.50;;;12.00;99.90;;;;;;10125022;29;20657;-80
2023/01/05 09:05:12;;;;;;;4.20;1.53;;;12.00;99.90;;;;;;10127832;29;20244;-80
2023/01/05 09:10:15;;;;;;;5.90;3.30;;;12.50;99.90;;;;;;10100021;29;20318;-80
2023/01/05 09:15:18;;;;;;;3.13;1.60;;;12.30;99.90;;;;;;10091312;29;20251;-79
2023/01/05 09:20:20;;;;;;;2.97;1.40;;;12.90;99.90;;;;;;10075129;29;20237;-79
2023/01/05 09:25:23;;;;;;;2.87;1.07;;;13.00;99.90;;;;;;10090515;29;20320;-80
2023/01/05 09:30:25;;;;;;;2.57;0.77;;;13.40;99.90;;;;;;10116358;29;20326;-79
2023/01/05 09:35:28;;;;;;;4.53;1.57;;;14.60;99.90;;;;;;10112760;29;20703;-79
2023/01/05 09:40:36;;;;;;;1.03;0.60;;;14.80;99.90;;;;;;10129482;29;20244;-79
2023/01/05 09:45:49;;;;;;;1.63;0.73;;;13.90;99.90;;;;;;10102360;29;20228;-80
2023/01/05 09:50:53;;;;;;;2.60;1.20;;;14.20;99.90;;;;;;10117183;29;20334;-79
2023/01/05 09:55:59;;;;;;;3.10;1.73;;;13.70;99.90;;;;;;10117779;29;20293;-79
2023/01/05 10:07:43;;;;;;;3.90;1.30;;;14.30;99.90;;;;;;10070198;29;20229;-78
2023/01/05 10:13:04;;;;;;;1.90;0.70;;;14.00;99.90;;;;;;10071925;29;20264;-79
2023/01/05 10:18:16;;;;;;;3.03;1.00;;;14.70;99.90;;;;;;10074578;29;20305;-78
2023/01/05 10:23:40;;;;;;;1.23;0.73;;;15.10;99.90;;;;;;10094547;29;20705;-78
2023/01/05 10:29:08;;;;;;;3.83;1.03;;;14.30;99.90;;;;;;10108376;29;20330;-78
2023/01/05 10:34:22;;;;;;;1.53;0.90;;;14.80;99.90;;;;;;10058998;29;20659;-78
2023/01/05 10:40:03;;;;;;;1.40;0.90;;;14.80;99.90;;;;;;10049988;29;20235;-79
2023/01/05 10:45:10;;;;;;;5.10;0.97;;;15.10;99.90;;;;;;10006659;29;20297;-79
2023/01/05 10:50:38;;;;;;;1.07;0.60;;;15.80;99.90;;;;;;9989522;29;20313;-80
2023/01/05 10:55:55;;;;;;;2.03;0.80;;;16.10;99.90;;;;;;9991637;29;20698;-79
2023/01/05 11:01:23;;;;;;;1.13;0.90;;;16.10;99.90;;;;;;9990812;29;20347;-80
2023/01/05 11:06:29;;;;;;;2.30;0.63;;;15.90;99.90;;;;;;9994258;29;20875;-79
2023/01/05 11:11:32;;;;;;;1.17;0.97;;;16.00;99.90;;;;;;9988898;29;20255;-80
2023/01/05 11:16:37;;;;;;;0.70;0.50;;;15.50;99.90;;;;;;10034963;29;20238;-80
2023/01/05 11:21:44;;;;;;;2.20;0.83;;;15.80;99.90;;;;;;10023572;29;20238;-79
2023/01/05 11:27:02;;;;;;;2.20;1.00;;;15.30;99.90;;;;;;10002036;29;20267;-79
2023/01/05 11:32:11;;;;;;;1.47;0.90;;;15.80;99.90;;;;;;10017915;29;20269;-79
2023/01/05 11:37:28;;;;;;;2.30;0.97;;;15.50;99.90;;;;;;10018115;29;20886;-79
2023/01/05 11:42:35;;;;;;;1.80;0.57;;;15.20;99.40;;;;;;10016910;29;20249;-80
2023/01/05 11:47:46;;;;;;;1.93;0.87;;;15.40;99.90;;;;;;10021260;29;20246;-79
2023/01/05 11:52:52;;;;;;;1.53;0.80;;;15.90;99.90;;;;;;10016727;29;20329;-79
2023/01/05 11:58:19;;;;;;;1.60;0.77;;;16.00;99.90;;;;;;10036757;29;20619;-81
2023/01/05 12:03:46;;;;;;;1.97;0.77;;;15.50;99.90;;;;;;10051366;29;20663;-81
2023/01/05 12:09:10;;;;;;;1.57;0.70;;;15.50;99.90;;;;;;10052262;29;20281;-78
2023/01/05 12:14:38;;;;;;;4.80;1.13;;;15.90;99.90;;;;;;10035253;29;20268;-79
2023/01/05 12:19:54;;;;;;;0.77;0.57;;;15.90;99.90;;;;;;10053898;29;20237;-78
2023/01/05 12:25:21;;;;;;;1.73;0.77;;;16.20;99.90;;;;;;10063042;29;20699;-78
2023/01/05 12:30:26;;;;;;;0.77;0.53;;;15.20;99.90;;;;;;10008688;29;20290;-78
2023/01/05 12:36:18;;;;;;;4.87;1.17;;;15.30;99.90;;;;;;10053168;29;20225;-78
2023/01/05 12:41:45;;;;;;;0.80;0.47;;;15.10;99.90;;;;;;10053312;29;20700;-79
2023/01/05 12:47:16;;;;;;;2.90;0.53;;;15.50;99.90;;;;;;10051755;29;20246;-79
2023/01/05 12:52:40;;;;;;;1.27;0.50;;;15.20;99.90;;;;;;10051840;29;21079;-79
2023/01/05 12:57:52;;;;;;;4.43;0.63;;;15.30;99.90;;;;;;10028945;29;20281;-79
2023/01/05 13:03:24;;;;;;;1.37;0.70;;;14.60;99.90;;;;;;10057301;29;20696;-79
2023/01/05 13:08:56;;;;;;;0.77;0.77;;;14.20;99.90;;;;;;10036919;29;20305;-79
2023/01/05 13:20:42;;;;;;;1.23;0.77;;;14.50;99.90;;;;;;10046225;29;20703;-79
2023/01/05 13:26:16;;;;;;;0.93;0.60;;;14.50;99.90;;;;;;10045296;29;20712;-79
2023/01/05 13:31:30;;;;;;;3.60;1.10;;;15.20;99.90;;;;;;10080747;29;20265;-79
2023/01/05 13:36:53;;;;;;;1.70;1.17;;;15.50;99.90;;;;;;10054242;29;20300;-79
2023/01/05 13:42:26;;;;;;;1.70;0.87;;;15.60;99.90;;;;;;10095047;29;20245;-79
2023/01/05 13:47:59;;;;;;;2.07;0.83;;;14.90;99.90;;;;;;10078080;29;20705;-79
2023/01/05 13:53:15;;;;;;;2.70;0.80;;;14.70;99.90;;;;;;10071878;29;20253;-79
2023/01/05 13:58:38;;;;;;;0.93;0.80;;;15.10;99.90;;;;;;10072844;29;20238;-80
2023/01/05 14:03:49;;;;;;;1.13;0.63;;;14.00;99.90;;;;;;10075467;29;20237;-80
2023/01/05 14:09:05;;;;;;;2.00;0.77;;;14.50;99.90;;;;;;10088832;29;20658;-80
2023/01/05 14:14:27;;;;;;;1.00;0.80;;;14.60;99.90;;;;;;10086260;29;20324;-80
2023/01/05 14:19:50;;;;;;;0.50;0.43;;;13.50;99.90;;;;;;10082814;29;20290;-80
2023/01/05 14:24:52;;;;;;;2.20;1.37;;;14.20;99.90;;;;;;10043647;29;20253;-80
2023/01/05 14:29:58;;;;;;;5.60;2.77;;;12.90;99.90;;;;;;10050396;29;20245;-80
2023/01/05 14:35:13;;;;;;;4.13;1.63;;;10.00;99.90;;;;;;10050298;29;20293;-80
2023/01/05 14:40:23;;;;;;;1.40;0.97;;;9.30;99.90;;;;;;10032653;29;20241;-80
2023/01/05 14:45:35;;;;;;;12.73;3.70;;;11.30;99.90;;;;;;10062254;29;20238;-80
2023/01/05 14:50:42;;;;;;;2.70;1.90;;;11.00;99.90;;;;;;10088162;29;20245;-80
2023/01/05 14:55:51;;;;;;;1.73;1.37;;;12.00;99.90;;;;;;10073222;29;20745;-80
2023/01/05 15:01:00;;;;;;;2.97;1.20;;;11.50;99.90;;;;;;10044002;29;20253;-80
2023/01/05 15:06:08;;;;;;;1.87;1.27;;;11.70;99.90;;;;;;10054997;29;20254;-81
2023/01/05 15:11:35;;;;;;;3.23;1.20;;;12.00;99.90;;;;;;10092290;29;20623;-81
2023/01/05 15:16:59;;;;;;;1.63;1.03;;;12.30;99.90;;;;;;10085229;29;20642;-80
2023/01/05 15:22:31;;;;;;;1.13;0.60;;;12.50;98.50;;;;;;10093214;29;20674;-81
2023/01/05 15:28:00;;;;;;;2.03;1.40;;;11.50;99.90;;;;;;10071215;29;20681;-81
2023/01/05 15:33:12;;;;;;;1.53;1.03;;;12.60;99.90;;;;;;10055784;29;20265;-81
2023/01/05 15:38:28;;;;;;;2.53;1.77;;;12.60;98.30;;;;;;10055422;29;20237;-81
2023/01/05 15:43:31;;;;;;;5.67;2.80;;;12.50;99.90;;;;;;10054827;29;20234;-81
2023/01/05 15:48:39;;;;;;;3.13;2.23;;;12.80;96.80;;;;;;10054752;29;20246;-80
2023/01/05 15:53:57;;;;;;;1.63;1.03;;;12.30;95.00;;;;;;10069208;29;20264;-80
2023/01/05 15:59:03;;;;;;;3.20;1.73;;;10.20;99.90;;;;;;10066022;29;20301;-80
2023/01/05 16:04:07;;;;;;;1.83;1.10;;;12.40;99.90;;;;;;10055153;29;20237;-80
2023/01/05 16:09:33;;;;;;;1.67;1.10;;;12.80;99.90;;;;;;10054120;29;20291;-80
2023/01/05 16:14:44;;;;;;;2.40;1.33;;;13.10;99.90;;;;;;10029420;29;20865;-84
2023/01/05 16:19:57;;;;;;;3.47;1.37;;;12.50;99.90;;;;;;10038940;29;20260;-80
2023/01/05 16:25:23;;;;;;;2.10;1.27;;;12.40;99.90;;;;;;10039576;29;20278;-80
2023/01/05 16:30:36;;;;;;;2.30;1.33;;;13.00;99.90;;;;;;10039626;29;20294;-80
2023/01/05 16:36:04;;;;;;;2.50;1.53;;;12.50;99.90;;;;;;10042360;29;20761;-79
2023/01/05 16:41:20;;;;;;;2.20;1.40;;;12.60;99.90;;;;;;10036472;29;20233;-80
2023/01/05 16:46:43;;;;;;;1.83;1.47;;;13.10;99.90;;;;;;10051211;29;20238;-80
2023/01/05 16:51:46;;;;;;;2.07;1.37;;;12.90;99.90;;;;;;10049832;29;20667;-79
2023/01/05 16:57:00;;;;;;;3.40;1.83;;;13.50;99.90;;;;;;10042817;29;20318;-81
2023/01/05 17:02:03;;;;;;;4.67;2.20;;;12.40;99.90;;;;;;10082478;29;20314;-81
2023/01/05 17:07:08;;;;;;;2.23;1.40;;;11.80;96.10;;;;;;10087322;29;20234;-80
2023/01/05 17:12:12;;;;;;;4.70;2.40;;;;;;;;;;10051031;29;20290;-81
2023/01/05 17:17:14;;;;;;;3.87;2.63;;;6.90;99.90;;;;;;10068220;29;20285;-80
2023/01/05 17:22:17;;;;;;;11.30;4.10;;;5.50;99.90;;;;;;10084630;29;20241;-81
2023/01/05 17:27:20;;;;;;;7.20;5.07;;;4.90;99.90;;;;;;10069378;29;20272;-80
2023/01/05 17:32:23;;;;;;;3.17;2.87;;;4.60;99.90;;;;;;10069288;29;20316;-81
2023/01/05 17:37:26;;;;;;;7.90;4.37;;;4.60;99.90;;;;;;10051829;29;20304;-81
2023/01/05 17:42:43;;;;;;;11.33;2.47;;;4.40;99.90;;;;;;10061662;29;20687;-87
2023/01/05 17:47:47;;;;;;;6.00;3.30;;;;;;;;;;10070650;29;20311;-88
2023/01/05 17:52:50;;;;;;;5.50;3.23;;;;;;;;;;10072854;29;20345;-88
2023/01/05 17:57:53;;;;;;;11.43;2.67;;;4.30;99.90;;;;;;10071857;29;20236;-89
2023/01/05 18:02:56;;;;;;;3.97;2.60;;;4.20;99.90;;;;;;10072931;29;20240;-89
2023/01/05 18:07:59;;;;;;;5.53;2.90;;;4.10;99.90;;;;;;10072277;29;20284;-88
2023/01/05 18:13:02;;;;;;;2.87;2.23;;;4.10;99.90;;;;;;10085742;29;20279;-89
2023/01/05 18:18:09;;;;;;;1.20;1.03;;;;;;;;;;10075333;29;20245;-89
2023/01/05 18:23:12;;;;;;;1.93;1.47;;;;;;;;;;10089005;29;20236;-89
2023/01/05 18:34:53;;;;;;;1.53;0.80;;;8.80;99.90;;;;;;10017174;29;20265;-90
2023/01/05 18:39:55;;;;;;;2.20;1.63;;;9.90;99.90;;;;;;10021399;29;20567;-89
2023/01/05 18:44:58;;;;;;;3.13;1.43;;;10.70;99.90;;;;;;10005469;29;20290;-90
2023/01/05 18:50:15;;;;;;;1.30;0.90;;;10.40;99.90;;;;;;10003984;29;20249;-90
2023/01/05 18:55:18;;;;;;;1.37;1.10;;;10.80;99.90;;;;;;10019852;29;20309;-89
2023/01/05 19:00:21;;;;;;;0.93;0.57;;;10.60;99.90;;;;;;10088990;29;20632;-90
2023/01/05 19:05:31;;;;;;;2.47;1.23;;;11.20;99.90;;;;;;10080410;29;20249;-90
2023/01/05 19:10:34;;;;;;;3.30;1.23;;;;;;;;;;10079991;29;20664;-88
2023/01/05 19:15:37;;;;;;;3.70;1.60;;;11.90;99.90;;;;;;10096745;29;20308;-90
2023/01/05 19:20:40;;;;;;;2.07;1.47;;;11.80;99.90;;;;;;10079841;29;20237;-89
2023/01/05 19:25:43;;;;;;;1.93;1.27;;;11.90;99.90;;;;;;10079047;29;20297;-89
2023/01/05 19:30:46;;;;;;;2.73;1.17;;;12.00;99.90;;;;;;10079324;29;20245;-89
2023/01/05 19:35:49;;;;;;;3.17;1.23;;;11.90;99.90;;;;;;10095369;29;20272;-90
2023/01/05 19:40:52;;;;;;;6.90;2.40;;;11.20;99.90;;;;;;10094277;29;20336;-90
2023/01/05 19:46:02;;;;;;;5.37;2.40;;;10.70;99.90;;;;;;10078328;29;20252;-89
2023/01/05 19:51:14;;;;;;;5.63;1.70;;;11.80;99.90;;;;;;10078741;29;20245;-89
2023/01/05 19:56:17;;;;;;;5.30;1.80;;;11.60;99.90;;;;;;10078238;29;20349;-89
2023/01/05 20:01:22;;;;;;;2.00;1.17;;;12.20;99.90;;;;;;10094375;29;20241;-90
2023/01/05 20:06:28;;;;;;;4.73;2.10;;;12.20;99.90;;;;;;10056823;29;20293;-91
2023/01/05 20:11:34;;;;;;;3.87;1.93;;;12.70;97.70;;;;;;10054230;29;20249;-91
2023/01/05 20:16:39;;;;;;;5.03;2.50;;;12.10;94.00;;;;;;10053255;29;20866;-91
2023/01/05 20:21:42;;;;;;;3.77;2.10;;;11.60;97.70;;;;;;10039091;29;20237;-89
2023/01/05 20:26:46;;;;;;;5.33;2.80;;;12.00;99.40;;;;;;10055076;29;20277;-91
2023/01/05 20:32:03;;;;;;;8.27;3.27;;;8.80;99.90;;;;;;10082385;29;20661;-92
2023/01/05 20:37:09;;;;;;;4.24;2.02;;;9.20;99.90;;;;;;9734261;29;10001108;-92
2023/01/05 20:42:12;;;;;;;8.83;4.57;;;10.90;99.90;;;;;;10012507;29;20242;-93
2023/01/05 20:47:16;;;;;;;2.57;2.17;;;10.90;99.10;;;;;;10013961;29;20234;-92
2023/01/05 20:52:20;;;;;;;4.23;2.47;;;11.20;99.90;;;;;;10031249;29;20233;-91
2023/01/05 20:57:23;;;;;;;3.43;2.40;;;10.80;99.70;;;;;;10062012;29;20237;-92
2023/01/05 21:02:26;;;;;;;3.83;2.57;;;11.70;99.90;;;;;;10072283;29;20659;-91
2023/01/05 21:07:29;;;;;;;2.73;1.60;;;11.50;99.90;;;;;;10062552;29;20241;-90
2023/01/05 21:12:33;;;;;;;6.60;3.17;;;12.30;99.90;;;;;;10032863;29;20301;-90
2023/01/05 21:17:36;;;;;;;5.63;3.37;;;11.50;99.90;;;;;;10049935;29;20268;-89
2023/01/05 21:22:39;;;;;;;5.43;3.10;;;11.70;99.90;;;;;;10034675;29;20795;-89
2023/01/05 21:27:42;;;;;;;5.20;2.80;;;12.00;99.90;;;;;;10050414;29;20626;-90
2023/01/05 21:32:45;;;;;;;6.40;3.60;;;11.70;99.90;;;;;;10029275;29;20305;-90
2023/01/05 21:37:48;;;;;;;6.90;3.43;;;11.30;99.60;;;;;;10049740;29;20290;-91
2023/01/05 21:42:52;;;;;;;3.90;2.73;;;11.30;99.90;;;;;;10048581;29;20277;-90
2023/01/05 21:47:56;;;;;;;6.03;3.17;;;11.60;99.90;;;;;;10031523;29;20301;-90
2023/01/05 21:58:20;;;;;;;3.70;2.77;;;10.70;99.90;;;;;;10068437;29;20298;-90
2023/01/05 22:03:23;;;;;;;3.40;2.37;;;10.50;99.90;;;;;;10080165;29;20261;-91
2023/01/05 22:08:26;;;;;;;5.60;3.20;;;11.10;99.90;;;;;;10051004;29;20301;-89
2023/01/05 22:13:28;;;;;;;6.50;4.73;;;10.40;99.90;;;;;;10031344;29;20334;-90
2023/01/05 22:18:32;;;;;;;4.23;2.47;;;10.40;98.60;;;;;;10005634;29;20234;-89
2023/01/05 22:23:35;;;;;;;8.83;5.00;;;9.90;99.90;;;;;;10010998;29;20245;-91
2023/01/05 22:28:40;;;;;;;5.57;3.27;;;10.70;99.90;;;;;;10033111;29;20298;-91
2023/01/05 22:33:45;;;;;;;7.90;4.20;;;10.00;99.90;;;;;;10049076;29;20260;-91
2023/01/05 22:38:49;;;;;;;5.60;4.80;;;9.80;99.90;;;;;;10047920;29;20270;-92
2023/01/05 22:43:53;;;;;;;5.77;2.90;;;9.20;99.90;;;;;;10048136;29;20333;-91
2023/01/05 22:48:57;;;;;;;4.60;3.00;;;10.10;99.90;;;;;;10032311;29;20236;-90
2023/01/05 22:54:01;;;;;;;5.67;4.00;;;10.20;99.90;;;;;;10047299;29;20687;-90
2023/01/05 22:59:04;;;;;;;6.80;3.90;;;10.60;99.90;;;;;;10050079;29;20297;-91
2023/01/05 23:04:07;;;;;;;3.67;3.03;;;10.40;99.90;;;;;;10030176;29;20299;-91
2023/01/05 23:09:13;;;;;;;4.83;3.43;;;10.50;99.90;;;;;;10033910;29;20299;-92
2023/01/05 23:14:17;;;;;;;7.00;3.73;;;9.40;99.90;;;;;;10029075;29;20265;-91
2023/01/05 23:19:20;;;;;;;9.23;5.30;;;10.00;99.90;;;;;;10056511;29;20305;-92
2023/01/05 23:24:25;;;;;;;8.37;5.30;;;10.10;99.90;;;;;;10041433;29;20309;-91
2023/01/05 23:29:28;;;;;;;4.30;3.10;;;10.40;99.90;;;;;;10057241;29;20278;-92
2023/01/05 23:34:31;;;;;;;4.83;3.77;;;10.20;99.90;;;;;;10055971;29;20294;-93
2023/01/05 23:39:33;;;;;;;8.17;4.17;;;10.40;99.90;;;;;;10057227;29;20301;-92
2023/01/05 23:44:36;;;;;;;8.57;4.80;;;10.10;99.90;;;;;;10040996;29;20301;-91
2023/01/05 23:49:38;;;;;;;7.10;3.70;;;9.80;99.90;;;;;;10081345;29;20278;-92
2023/01/05 23:54:55;;;;;;;4.70;3.00;;;9.70;99.90;;;;;;10073248;29;20314;-91
